Terminal Aerodrome Forecast
Issued by NWS

Home | Current Version | Previous Version | Text Only | Print | Product List | Glossary On
Versions: 1 2 3 4 5 6 7 8 9 10 11 12
000
FTUS45 KVEF 061100
TAFEED
TAF
KEED 061120Z 0612/0712 34010KT P6SM SKC
     FM061700 01018G28KT P6SM SKC
     FM070400 34010KT P6SM SKC=

USA.gov is the U.S. government's official web portal to all federal, state and local government web resources and services.